Time;durP1;ratioP1;P1;durP2;ratioP2;P2;SDS_P1;SDS_P2;PMS_P1;PMS_P2;Temp;Humidity;BMP_temperature;BMP_pressure;BME280_temperature;BME280_humidity;BME280_pressure;Samples;Min_cycle;Max_cycle;Signal;HPM_P1;HPM_P2
2022/09/19 00:01:10;;;;;;;3.22;1.50;;;;;;;8.81;76.15;93918.53;5009013;28;20042;-63
2022/09/19 00:03:39;;;;;;;4.30;1.90;;;;;;;8.95;75.58;93912.97;5009544;28;20109;-67
2022/09/19 00:06:09;;;;;;;4.00;1.73;;;;;;;8.42;77.38;93916.88;5008892;28;20726;-63
2022/09/19 00:08:38;;;;;;;5.53;1.85;;;;;;;8.55;77.06;93919.91;5012340;28;20046;-67
2022/09/19 00:11:06;;;;;;;3.75;2.05;;;;;;;8.39;76.83;93912.19;5013052;28;20441;-66
2022/09/19 00:13:35;;;;;;;4.28;1.83;;;;;;;8.43;76.91;93923.13;5012556;28;20402;-66
2022/09/19 00:16:02;;;;;;;5.03;1.88;;;;;;;8.27;76.96;93913.47;5012714;28;20442;-67
2022/09/19 00:18:29;;;;;;;3.87;1.80;;;;;;;8.32;77.44;93923.97;5012722;28;20049;-68
2022/09/19 00:20:56;;;;;;;4.70;1.70;;;;;;;8.23;77.76;93918.19;5011887;28;20048;-66
2022/09/19 00:26:10;;;;;;;3.50;1.42;;;;;;;8.49;76.53;93925.06;5012516;28;20056;-63
2022/09/19 00:28:38;;;;;;;3.53;1.73;;;;;;;8.25;76.91;93918.56;5013134;28;20477;-65
2022/09/19 00:31:05;;;;;;;5.00;2.10;;;;;;;8.18;78.15;93915.84;5012831;28;20050;-65
2022/09/19 00:33:33;;;;;;;3.05;1.58;;;;;;;8.35;77.74;93925.09;5012149;28;20800;-65
2022/09/19 00:36:02;;;;;;;4.18;1.88;;;;;;;8.46;77.65;93925.06;5012276;28;20041;-65
2022/09/19 00:38:30;;;;;;;4.05;1.83;;;;;;;8.44;78.33;93927.44;5012326;28;20050;-65
2022/09/19 00:40:57;;;;;;;4.22;1.70;;;;;;;8.48;76.49;93933.66;5011314;28;20048;-65
2022/09/19 00:43:43;;;;;;;3.20;1.60;;;;;;;8.58;76.01;93927.34;5012255;28;20485;-65
2022/09/19 00:46:10;;;;;;;5.45;3.28;;;;;;;8.66;75.79;93936.25;5011720;28;20068;-67
2022/09/19 00:48:41;;;;;;;4.55;1.80;;;;;;;8.31;75.82;93921.63;5012738;28;20048;-66
2022/09/19 00:51:17;;;;;;;3.85;1.63;;;;;;;8.25;76.56;93925.94;5011880;28;20399;-67
2022/09/19 00:53:44;;;;;;;3.70;1.80;;;;;;;8.49;74.93;93927.78;5012592;28;20046;-65
2022/09/19 00:56:11;;;;;;;3.30;1.70;;;;;;;8.41;77.07;93929.03;4998360;28;20045;-67
2022/09/19 00:58:43;;;;;;;4.15;1.30;;;;;;;8.43;74.85;93934.88;5011242;28;20046;-65
2022/09/19 01:01:13;;;;;;;3.47;1.30;;;;;;;8.40;75.46;93935.63;5011815;28;20398;-65
2022/09/19 01:03:41;;;;;;;3.80;1.45;;;;;;;8.15;75.86;93946.72;5012443;28;20072;-65
2022/09/19 01:06:11;;;;;;;3.80;1.40;;;;;;;8.09;75.94;93934.63;5011510;28;20041;-66
2022/09/19 01:08:44;;;;;;;4.43;1.30;;;;;;;8.07;75.61;93937.78;5012398;28;20392;-65
2022/09/19 01:11:24;;;;;;;3.30;1.20;;;;;;;8.17;75.44;93944.38;5011812;28;20044;-65
2022/09/19 01:14:02;;;;;;;3.10;1.52;;;;;;;7.90;76.00;93949.56;5012422;28;20045;-65
2022/09/19 01:16:38;;;;;;;4.53;2.40;;;;;;;8.19;75.38;93955.69;5011614;28;20481;-65
2022/09/19 01:19:27;;;;;;;3.05;1.50;;;;;;;8.08;76.24;93958.47;5011083;28;20648;-66
2022/09/19 01:22:07;;;;;;;3.33;1.40;;;;;;;8.00;75.16;93957.72;5011032;28;20046;-70
2022/09/19 01:24:54;;;;;;;2.30;1.30;;;;;;;8.02;76.51;93960.06;5011324;28;20848;-65
2022/09/19 01:27:39;;;;;;;2.75;1.42;;;;;;;8.16;75.68;93953.75;5011467;28;20060;-66
2022/09/19 01:30:11;;;;;;;2.60;1.20;;;;;;;8.35;75.08;93953.25;5011690;28;20046;-68
2022/09/19 01:32:52;;;;;;;3.17;1.35;;;;;;;8.19;75.27;93956.47;5011046;28;20520;-67
2022/09/19 01:35:27;;;;;;;2.50;1.10;;;;;;;8.20;76.46;93949.03;5005101;28;20045;-66
2022/09/19 01:38:09;;;;;;;2.10;1.10;;;;;;;8.17;75.54;93958.03;5010095;28;20042;-66
2022/09/19 01:40:37;;;;;;;2.55;1.20;;;;;;;8.28;75.71;93956.00;5011386;28;20635;-65
2022/09/19 01:43:11;;;;;;;2.50;1.35;;;;;;;8.36;75.75;93957.53;5011667;28;20042;-68
2022/09/19 01:45:38;;;;;;;3.38;1.50;;;;;;;8.30;76.34;93964.59;5010432;28;20852;-65
2022/09/19 01:48:32;;;;;;;3.63;1.20;;;;;;;8.28;76.63;93964.22;5010950;28;20052;-66
2022/09/19 01:51:23;;;;;;;2.83;1.38;;;;;;;8.24;77.08;93963.47;5010144;28;20618;-66
2022/09/19 01:54:05;;;;;;;2.30;1.27;;;;;;;8.11;77.20;93967.81;5010745;28;21751;-65
2022/09/19 01:56:41;;;;;;;3.70;1.58;;;;;;;8.07;78.69;93959.66;4997228;28;20042;-65
2022/09/19 01:59:33;;;;;;;2.85;1.67;;;;;;;8.06;79.13;93968.25;5010900;28;20053;-66
2022/09/19 02:02:02;;;;;;;2.70;1.30;;;;;;;8.01;78.03;93961.25;5011098;28;20045;-65
2022/09/19 02:04:50;;;;;;;3.92;1.35;;;;;;;7.95;79.42;93968.31;5010842;28;20033;-66
2022/09/19 02:07:29;;;;;;;2.70;1.25;;;;;;;7.57;81.08;93971.56;5010580;28;20052;-65
2022/09/19 02:10:05;;;;;;;3.40;1.40;;;;;;;7.92;80.28;93974.56;5011010;28;20042;-67
2022/09/19 02:12:38;;;;;;;2.95;1.60;;;;;;;8.09;79.53;93981.09;4998711;28;21750;-66
2022/09/19 02:15:11;;;;;;;3.30;1.50;;;;;;;7.66;81.42;93978.53;5007143;28;20045;-68
2022/09/19 02:17:51;;;;;;;2.35;1.33;;;;;;;7.58;81.21;93969.59;5010104;28;20270;-65
2022/09/19 02:20:29;;;;;;;2.70;1.40;;;;;;;7.92;81.14;93972.59;5010356;28;20099;-68
2022/09/19 02:23:01;;;;;;;3.40;1.70;;;;;;;7.90;80.77;93971.44;5011143;28;20046;-65
2022/09/19 02:25:33;;;;;;;3.00;1.70;;;;;;;7.91;81.21;93973.78;5010405;28;20041;-66
2022/09/19 02:28:07;;;;;;;3.57;1.50;;;;;;;7.83;82.47;93985.91;5010693;28;20054;-65
2022/09/19 02:30:35;;;;;;;2.90;1.65;;;;;;;7.72;82.92;93979.69;5009568;28;21030;-66
2022/09/19 02:33:07;;;;;;;2.95;1.67;;;;;;;7.98;81.96;93981.16;5010666;28;20113;-68
2022/09/19 02:35:38;;;;;;;3.38;1.65;;;;;;;7.96;81.43;93981.56;5009762;28;21658;-65
2022/09/19 02:38:17;;;;;;;3.40;1.60;;;;;;;7.98;81.35;93979.19;5006783;28;20046;-66
2022/09/19 02:40:51;;;;;;;3.20;1.70;;;;;;;7.88;82.41;93984.72;5010277;28;20635;-66
2022/09/19 02:43:33;;;;;;;3.40;1.63;;;;;;;8.05;81.13;93981.13;4996433;28;20050;-66
2022/09/19 02:46:08;;;;;;;3.80;1.90;;;;;;;7.99;81.19;93994.44;5010019;28;20179;-71
2022/09/19 02:49:14;;;;;;;4.00;1.60;;;;;;;7.91;81.51;93986.66;5009685;28;20046;-66
2022/09/19 02:51:50;;;;;;;2.75;1.50;;;;;;;7.64;82.94;93994.56;5000869;28;20888;-66
2022/09/19 02:54:26;;;;;;;2.90;1.53;;;;;;;7.78;81.73;93987.09;5009590;28;20517;-65
2022/09/19 02:56:56;;;;;;;3.38;1.80;;;;;;;7.69;83.98;93984.00;5010499;28;20407;-66
2022/09/19 02:59:35;;;;;;;3.70;1.67;;;;;;;7.76;83.55;93989.44;5009601;28;20054;-65
2022/09/19 03:02:08;;;;;;;3.70;1.83;;;;;;;7.73;83.92;93982.03;5010116;28;20052;-66
2022/09/19 03:04:50;;;;;;;2.92;1.70;;;;;;;7.57;84.37;93979.75;5009359;28;20427;-66
2022/09/19 03:07:25;;;;;;;4.00;1.73;;;;;;;7.57;84.13;93978.97;5009618;28;20429;-65
2022/09/19 03:10:07;;;;;;;3.20;1.70;;;;;;;7.78;83.38;93986.31;5010236;28;20045;-66
2022/09/19 03:12:40;;;;;;;3.10;1.80;;;;;;;7.74;83.49;93982.81;5009508;28;20042;-65
2022/09/19 03:15:07;;;;;;;3.08;1.75;;;;;;;7.60;83.85;93976.22;5009433;28;20054;-67
2022/09/19 03:17:43;;;;;;;3.38;1.90;;;;;;;7.58;84.46;93984.03;5010030;28;20037;-68
2022/09/19 03:20:12;;;;;;;4.00;2.00;;;;;;;7.52;84.63;93985.59;5009473;28;20038;-66
2022/09/19 03:22:39;;;;;;;3.80;1.80;;;;;;;7.35;85.11;93995.41;5010167;28;20437;-66
2022/09/19 03:25:10;;;;;;;3.97;2.10;;;;;;;7.34;84.76;94002.00;5009632;28;20397;-67
2022/09/19 03:27:37;;;;;;;4.45;1.77;;;;;;;7.11;84.54;94007.13;5009297;28;20888;-66
2022/09/19 03:30:09;;;;;;;3.33;2.10;;;;;;;7.22;85.18;94013.34;5009830;28;20046;-69
2022/09/19 03:32:41;;;;;;;3.90;2.00;;;;;;;7.04;86.19;94013.34;5009186;28;20704;-65
2022/09/19 03:35:10;;;;;;;3.80;2.10;;;;;;;6.90;85.72;94013.34;5007827;28;20557;-64
2022/09/19 03:37:37;;;;;;;9.63;2.10;;;;;;;7.01;85.43;94019.59;5008092;28;20038;-66
2022/09/19 03:40:04;;;;;;;3.30;2.10;;;;;;;6.88;86.80;94015.69;5010589;28;20054;-65
2022/09/19 03:42:34;;;;;;;3.92;2.40;;;;;;;6.95;86.19;94024.66;5010888;28;20354;-66
2022/09/19 03:45:02;;;;;;;3.70;2.00;;;;;;;6.85;86.30;94019.22;5013773;28;20042;-65
2022/09/19 03:47:29;;;;;;;3.45;2.10;;;;;;;6.76;86.58;94035.94;5013223;28;20049;-65
2022/09/19 03:49:57;;;;;;;5.03;2.15;;;;;;;6.78;86.41;94025.41;5013831;28;20052;-65
2022/09/19 03:52:27;;;;;;;3.42;2.20;;;;;;;6.68;86.27;94021.53;5012904;28;20054;-67
2022/09/19 03:54:54;;;;;;;3.53;2.17;;;;;;;6.84;85.81;94023.91;5013476;28;20081;-65
2022/09/19 03:57:21;;;;;;;3.70;1.97;;;;;;;6.84;86.11;94023.91;5012853;28;20442;-68
2022/09/19 03:59:48;;;;;;;2.97;1.85;;;;;;;6.85;86.52;94036.34;5013318;28;20052;-66
2022/09/19 04:02:14;;;;;;;3.20;1.98;;;;;;;6.82;86.12;94028.16;5012832;28;20038;-68
2022/09/19 04:04:41;;;;;;;3.30;1.85;;;;;;;6.86;85.69;94035.19;5013491;28;20048;-65
2022/09/19 04:07:08;;;;;;;4.35;2.60;;;;;;;6.77;86.23;94038.28;5012813;28;20123;-64
2022/09/19 04:09:35;;;;;;;4.43;2.00;;;;;;;6.84;86.32;94034.00;5013291;28;20050;-66
2022/09/19 04:12:03;;;;;;;4.32;1.90;;;;;;;6.76;84.98;94034.03;5013295;28;20399;-66
2022/09/19 04:14:34;;;;;;;4.35;2.30;;;;;;;6.89;85.86;94039.09;5012437;28;20042;-66
2022/09/19 04:17:00;;;;;;;3.70;2.22;;;;;;;6.86;85.24;94034.41;5013214;28;20513;-66
2022/09/19 04:19:51;;;;;;;3.35;1.90;;;;;;;6.66;86.09;94034.00;5012131;28;20152;-66
2022/09/19 04:22:18;;;;;;;5.70;1.97;;;;;;;6.73;85.22;94047.66;5012538;28;20057;-66
2022/09/19 04:24:45;;;;;;;4.78;2.55;;;;;;;6.67;86.08;94052.69;5013415;28;20064;-67
2022/09/19 04:27:13;;;;;;;4.35;2.20;;;;;;;6.65;85.80;94052.31;5012105;28;20049;-67
2022/09/19 04:29:46;;;;;;;4.10;2.33;;;;;;;6.47;86.05;94071.34;5011787;28;20042;-68
2022/09/19 04:32:15;;;;;;;5.88;2.60;;;;;;;6.46;87.61;94069.00;5012271;28;20061;-67
2022/09/19 04:34:43;;;;;;;7.67;2.40;;;;;;;6.50;86.86;94075.25;5013177;28;20402;-67
2022/09/19 04:37:10;;;;;;;3.33;1.80;;;;;;;6.54;85.59;94076.03;5011028;28;20049;-67
2022/09/19 04:39:37;;;;;;;3.47;2.00;;;;;;;6.45;86.25;94070.19;5013498;28;20083;-67
2022/09/19 04:42:04;;;;;;;5.22;2.00;;;;;;;6.40;86.65;94077.56;5013151;28;20509;-66
2022/09/19 04:44:31;;;;;;;5.70;2.65;;;;;;;6.43;86.61;94075.22;5011926;28;20049;-66
2022/09/19 04:46:58;;;;;;;4.73;2.10;;;;;;;6.39;86.40;94078.72;5011494;28;20046;-66
2022/09/19 04:49:35;;;;;;;3.83;2.13;;;;;;;6.33;86.56;94072.06;5010995;28;20670;-67
2022/09/19 04:52:03;;;;;;;3.38;1.90;;;;;;;6.25;86.02;94084.13;5012101;28;20402;-66
2022/09/19 04:54:35;;;;;;;4.25;1.83;;;;;;;6.16;86.79;94079.03;5010920;28;20103;-67
2022/09/19 04:57:05;;;;;;;3.72;2.00;;;;;;;6.17;86.55;94088.75;5011831;28;20040;-65
2022/09/19 04:59:33;;;;;;;4.27;2.10;;;;;;;6.05;86.40;94080.91;5009956;28;20103;-66
2022/09/19 05:02:01;;;;;;;5.60;2.40;;;;;;;6.02;86.94;94089.88;5011833;28;20042;-66
2022/09/19 05:04:28;;;;;;;3.83;2.00;;;;;;;5.94;86.34;94099.91;5010953;28;20053;-68
2022/09/19 05:06:55;;;;;;;5.63;1.92;;;;;;;5.93;86.57;94098.34;5011844;28;20037;-69
2022/09/19 05:09:22;;;;;;;4.53;2.03;;;;;;;5.90;86.71;94095.63;5010802;28;20111;-67
2022/09/19 05:11:49;;;;;;;5.33;1.83;;;;;;;5.86;86.52;94103.78;5011600;28;20050;-69
2022/09/19 05:14:17;;;;;;;4.40;1.90;;;;;;;5.90;86.09;94106.50;5010674;28;20050;-67
2022/09/19 05:16:49;;;;;;;4.80;1.85;;;;;;;5.74;87.15;94104.09;5011387;28;20049;-67
2022/09/19 05:19:17;;;;;;;3.60;1.75;;;;;;;5.83;86.89;94118.13;5009383;28;20068;-67
2022/09/19 05:21:44;;;;;;;6.32;1.70;;;;;;;5.57;86.49;94114.50;5011712;28;20104;-68
2022/09/19 05:24:11;;;;;;;5.77;1.80;;;;;;;5.82;86.08;94113.84;5010516;28;20050;-69
2022/09/19 05:26:40;;;;;;;4.57;2.00;;;;;;;5.69;86.05;94109.88;5010990;28;20046;-67
2022/09/19 05:29:08;;;;;;;4.88;1.90;;;;;;;5.77;86.49;94122.38;5010895;28;20103;-64
2022/09/19 05:31:37;;;;;;;4.88;2.08;;;;;;;5.84;86.06;94122.44;5011418;28;20042;-66
2022/09/19 05:34:04;;;;;;;4.50;2.20;;;;;;;5.79;85.74;94131.75;5011208;28;20056;-67
2022/09/19 05:36:31;;;;;;;3.40;1.90;;;;;;;5.85;85.85;94129.44;5010118;28;20042;-67
2022/09/19 05:38:57;;;;;;;4.90;2.03;;;;;;;5.88;85.75;94130.63;5010811;28;20042;-67
2022/09/19 05:41:24;;;;;;;4.00;2.20;;;;;;;5.85;85.86;94137.59;5009976;28;20046;-67
2022/09/19 05:43:51;;;;;;;5.35;2.40;;;;;;;6.01;85.54;94140.06;5011230;28;20045;-66
2022/09/19 05:46:20;;;;;;;5.13;2.30;;;;;;;6.07;84.58;94143.22;5009734;28;20058;-66
2022/09/19 05:48:48;;;;;;;7.30;3.00;;;;;;;6.14;84.54;94154.16;5010701;28;20077;-68
2022/09/19 05:51:15;;;;;;;6.47;2.30;;;;;;;6.03;85.08;94151.34;5009633;28;20046;-67
2022/09/19 05:53:54;;;;;;;6.47;2.85;;;;;;;6.05;84.74;94153.72;4997443;28;20049;-67
2022/09/19 05:56:22;;;;;;;4.50;2.10;;;;;;;5.87;84.97;94157.06;5009832;28;20103;-66
2022/09/19 05:58:53;;;;;;;5.18;2.13;;;;;;;5.89;84.95;94156.69;5010629;28;20126;-64
2022/09/19 06:01:20;;;;;;;11.27;2.10;;;;;;;5.70;85.72;94160.47;5009898;28;20084;-64
2022/09/19 06:03:48;;;;;;;5.32;2.03;;;;;;;6.08;84.58;94166.59;5010659;28;20053;-65
2022/09/19 06:06:18;;;;;;;4.18;2.20;;;;;;;6.16;83.80;94171.69;5007808;28;20041;-64
2022/09/19 06:08:53;;;;;;;6.75;2.80;;;;;;;5.79;85.01;94179.97;5010590;28;20045;-66
2022/09/19 06:11:19;;;;;;;7.80;3.10;;;;;;;5.76;85.51;94176.06;5009472;28;20491;-65
2022/09/19 06:16:32;;;;;;;12.20;4.47;;;;;;;6.66;82.62;94184.78;5009089;28;20304;-68
2022/09/19 06:18:59;;;;;;;15.77;5.38;;;;;;;6.86;82.26;94189.91;5010444;28;20048;-66
2022/09/19 06:21:26;;;;;;;10.13;3.55;;;;;;;6.89;81.12;94189.91;5009772;28;20076;-64
2022/09/19 06:23:52;;;;;;;6.57;2.72;;;;;;;7.03;80.20;94191.13;5010293;28;20052;-64
2022/09/19 06:26:20;;;;;;;4.60;2.03;;;;;;;6.49;81.62;94204.56;5009398;28;20451;-64
2022/09/19 06:28:47;;;;;;;7.50;2.13;;;;;;;6.99;80.69;94194.63;5010218;28;20061;-64
2022/09/19 06:31:14;;;;;;;4.55;2.22;;;;;;;7.00;80.35;94188.00;5009411;28;20481;-65
2022/09/19 06:33:42;;;;;;;4.55;2.10;;;;;;;6.99;79.78;94188.38;5009792;28;20073;-64
2022/09/19 06:36:10;;;;;;;5.95;2.47;;;;;;;6.89;80.49;94192.63;5009522;28;20042;-66
2022/09/19 06:38:40;;;;;;;4.73;2.30;;;;;;;6.74;80.33;94189.09;5008772;28;20034;-67
2022/09/19 06:41:08;;;;;;;4.95;2.03;;;;;;;6.95;79.29;94188.38;5008703;28;20099;-64
2022/09/19 06:43:35;;;;;;;5.78;2.40;;;;;;;7.16;79.38;94190.38;5008998;28;20044;-66
2022/09/19 06:46:03;;;;;;;5.50;2.30;;;;;;;7.06;78.66;94188.38;5009216;28;20042;-66
2022/09/19 06:48:31;;;;;;;5.88;2.25;;;;;;;6.55;79.43;94201.06;5009233;28;20045;-66
2022/09/19 06:50:57;;;;;;;4.23;2.00;;;;;;;7.23;78.17;94200.53;5009874;28;20402;-67
2022/09/19 06:53:24;;;;;;;7.53;2.38;;;;;;;7.51;77.09;94201.75;5007193;28;20050;-66
2022/09/19 06:55:51;;;;;;;4.93;2.10;;;;;;;7.76;75.62;94199.00;5009141;28;20048;-66
2022/09/19 06:58:17;;;;;;;6.95;1.95;;;;;;;7.72;75.82;94204.47;5008589;28;20045;-66
2022/09/19 07:00:44;;;;;;;5.85;2.20;;;;;;;8.06;73.69;94200.56;5007692;28;20042;-67
2022/09/19 07:03:14;;;;;;;3.93;1.97;;;;;;;8.15;73.68;94209.16;5009467;28;20384;-66
2022/09/19 07:05:42;;;;;;;6.32;1.95;;;;;;;8.29;72.87;94205.59;5009549;28;20127;-66
2022/09/19 07:08:10;;;;;;;5.13;1.95;;;;;;;8.73;71.02;94213.34;5009430;28;20430;-66
2022/09/19 07:10:37;;;;;;;6.43;1.85;;;;;;;10.99;64.07;94211.63;5009666;28;20054;-68
2022/09/19 07:13:06;;;;;;;8.15;2.10;;;;;;;12.86;58.08;94200.47;5009848;28;20045;-66
2022/09/19 07:15:35;;;;;;;4.03;1.60;;;;;;;16.42;48.36;94202.31;5008688;28;20784;-66
2022/09/19 07:18:02;;;;;;;5.63;1.70;;;;;;;16.56;47.41;94199.84;5008585;28;20042;-69
2022/09/19 07:20:29;;;;;;;4.70;1.50;;;;;;;15.83;47.38;94201.81;5009380;28;20045;-65
2022/09/19 07:23:03;;;;;;;5.00;1.60;;;;;;;17.40;42.98;94200.50;5009664;28;20045;-65
2022/09/19 07:25:37;;;;;;;6.30;1.90;;;;;;;16.81;43.10;94201.00;5008570;28;20210;-67
2022/09/19 07:28:06;;;;;;;4.90;1.30;;;;;;;19.60;38.81;94195.88;5009668;28;20046;-65
2022/09/19 07:30:34;;;;;;;4.88;1.30;;;;;;;18.87;39.13;94206.63;5008293;28;21782;-67
2022/09/19 07:33:04;;;;;;;4.32;1.40;;;;;;;18.94;38.54;94205.56;5009409;28;20038;-65
2022/09/19 07:35:35;;;;;;;4.13;1.60;;;;;;;19.79;36.56;94205.78;5008766;28;20138;-66
2022/09/19 07:38:03;;;;;;;5.70;1.38;;;;;;;16.48;42.74;94215.16;5009556;28;20044;-68
2022/09/19 07:40:33;;;;;;;3.93;1.67;;;;;;;18.94;39.14;94211.13;5008546;28;20399;-65
2022/09/19 07:43:04;;;;;;;4.82;1.40;;;;;;;19.42;37.70;94214.19;5009399;28;20107;-65
2022/09/19 07:45:36;;;;;;;4.93;1.58;;;;;;;18.72;38.33;94209.22;5008821;28;20445;-65
2022/09/19 07:48:04;;;;;;;4.55;1.10;;;;;;;19.01;37.99;94218.38;4993912;28;20050;-66
2022/09/19 07:50:31;;;;;;;4.32;1.42;;;;;;;20.64;34.07;94225.25;5008864;28;20057;-65
2022/09/19 07:52:59;;;;;;;9.23;1.30;;;;;;;21.19;32.99;94217.72;5003609;28;20038;-65
2022/09/19 07:55:27;;;;;;;4.50;1.08;;;;;;;18.82;37.51;94226.72;5008615;28;22955;-65
2022/09/19 07:57:55;;;;;;;4.75;1.20;;;;;;;21.85;33.75;94222.25;5009043;28;20040;-65
2022/09/19 08:00:24;;;;;;;3.90;1.00;;;;;;;20.92;32.87;94225.06;5007366;28;20038;-65
2022/09/19 08:03:02;;;;;;;3.08;0.80;;;;;;;21.26;33.22;94228.53;5009371;28;20096;-65
2022/09/19 08:05:34;;;;;;;5.07;1.20;;;;;;;21.43;31.63;94226.88;5008864;28;20096;-65
2022/09/19 08:08:01;;;;;;;4.07;1.15;;;;;;;22.96;30.16;94232.88;5008068;28;20042;-65
2022/09/19 08:10:28;;;;;;;3.95;1.23;;;;;;;18.72;35.77;94230.69;5008629;28;20364;-65
2022/09/19 08:13:02;;;;;;;4.63;1.10;;;;;;;17.07;39.05;94250.84;5009245;28;20034;-65
2022/09/19 08:15:30;;;;;;;3.80;1.10;;;;;;;17.19;40.05;94250.00;5008267;28;20042;-68
2022/09/19 08:18:04;;;;;;;4.50;1.20;;;;;;;17.82;39.06;94242.53;5008967;28;20046;-69
2022/09/19 08:20:37;;;;;;;4.43;1.17;;;;;;;20.47;33.51;94249.94;5008322;28;20369;-68
2022/09/19 08:23:07;;;;;;;3.97;1.10;;;;;;;18.91;35.49;94254.53;5008920;28;20050;-67
2022/09/19 08:25:35;;;;;;;5.30;1.40;;;;;;;20.75;33.60;94245.00;5007913;28;20162;-65
2022/09/19 08:28:05;;;;;;;4.03;1.20;;;;;;;22.53;30.81;94249.28;5009247;28;20107;-66
2022/09/19 08:30:36;;;;;;;4.87;1.07;;;;;;;23.69;28.34;94250.53;5011718;28;20038;-65
2022/09/19 08:33:03;;;;;;;3.00;0.90;;;;;;;20.80;32.30;94251.19;5012806;28;20362;-66
2022/09/19 08:35:32;;;;;;;3.50;1.10;;;;;;;18.14;36.37;94251.66;5010504;28;20108;-66
2022/09/19 08:38:00;;;;;;;4.18;1.10;;;;;;;17.52;37.54;94260.72;5012393;28;20050;-67
2022/09/19 08:40:51;;;;;;;5.85;1.60;;;;;;;19.74;34.51;94260.09;5011796;28;20050;-65
2022/09/19 08:43:22;;;;;;;7.60;1.20;;;;;;;20.31;33.59;94259.47;5011962;28;20049;-66
2022/09/19 08:46:11;;;;;;;5.35;1.60;;;;;;;23.49;28.45;94248.53;5012289;28;20046;-67
2022/09/19 08:48:59;;;;;;;4.60;1.20;;;;;;;24.18;28.55;94255.59;5011119;28;20120;-66
2022/09/19 08:51:47;;;;;;;3.53;1.10;;;;;;;21.49;31.00;94252.09;5011415;28;20045;-66
2022/09/19 08:54:16;;;;;;;4.05;0.70;;;;;;;21.28;30.49;94248.38;5010775;28;20061;-66
2022/09/19 08:56:44;;;;;;;3.53;0.90;;;;;;;19.48;33.53;94251.28;5012747;28;20038;-66
2022/09/19 08:59:23;;;;;;;3.20;1.08;;;;;;;22.67;28.55;94248.47;5011612;28;20407;-67
2022/09/19 09:01:56;;;;;;;4.05;1.20;;;;;;;23.27;29.44;94245.47;5011939;28;20042;-67
2022/09/19 09:04:42;;;;;;;3.92;1.10;;;;;;;23.36;28.82;94245.31;5010909;28;21139;-66
2022/09/19 09:07:20;;;;;;;6.40;1.00;;;;;;;21.64;31.30;94243.75;5011475;28;20044;-66
2022/09/19 09:09:47;;;;;;;4.17;0.90;;;;;;;20.82;32.73;94257.06;5012009;28;20065;-66
2022/09/19 09:12:41;;;;;;;3.15;0.73;;;;;;;21.50;30.48;94246.03;5011297;28;20053;-69
2022/09/19 09:15:38;;;;;;;4.05;0.82;;;;;;;22.44;28.78;94244.59;5011465;28;20488;-67
2022/09/19 09:18:31;;;;;;;4.53;0.93;;;;;;;24.90;26.01;94246.19;5011085;28;20046;-67
2022/09/19 09:21:10;;;;;;;3.95;0.90;;;;;;;25.14;25.52;94245.03;5011810;28;20415;-66
2022/09/19 09:23:42;;;;;;;3.87;1.00;;;;;;;24.20;27.18;94248.22;5010705;28;20683;-65
2022/09/19 09:26:40;;;;;;;4.32;0.95;;;;;;;26.04;25.32;94248.19;5011158;28;20469;-66
2022/09/19 09:29:25;;;;;;;4.65;0.90;;;;;;;22.10;29.42;94255.22;4992871;28;20045;-63
2022/09/19 09:31:56;;;;;;;4.57;0.90;;;;;;;20.50;32.00;94253.78;5011638;28;20565;-66
2022/09/19 09:34:28;;;;;;;3.50;0.95;;;;;;;21.69;30.85;94252.22;5010649;28;20054;-67
2022/09/19 09:37:03;;;;;;;2.63;0.70;;;;;;;24.14;26.53;94241.81;5011533;28;20038;-68
2022/09/19 09:40:12;;;;;;;2.85;0.73;;;;;;;23.57;26.73;94248.88;5009858;28;20403;-66
2022/09/19 09:42:55;;;;;;;3.47;0.90;;;;;;;18.14;35.15;94254.44;4984719;28;20683;-66
2022/09/19 09:45:40;;;;;;;5.13;1.05;;;;;;;16.11;41.02;94261.06;5010726;28;20484;-67
2022/09/19 09:48:18;;;;;;;3.58;0.82;;;;;;;15.49;42.72;94264.84;5010736;28;20037;-64
2022/09/19 09:50:59;;;;;;;3.20;0.90;;;;;;;16.03;41.16;94268.81;5010965;28;20071;-67
2022/09/19 09:53:46;;;;;;;5.95;1.20;;;;;;;14.86;43.94;94265.38;5009577;28;20053;-66
2022/09/19 09:56:48;;;;;;;6.32;1.23;;;;;;;14.28;47.00;94269.53;5010922;28;20560;-66
2022/09/19 10:05:41;;;;;;;4.63;1.27;;;;;;;15.18;46.04;94270.81;5009589;28;20131;-67
2022/09/19 10:08:07;;;;;;;7.60;1.20;;;;;;;12.71;51.32;94279.03;4989397;28;20048;-64
2022/09/19 10:10:38;;;;;;;6.13;1.25;;;;;;;13.21;50.15;94269.06;5010305;28;20045;-66
2022/09/19 10:13:25;;;;;;;7.22;1.30;;;;;;;13.17;48.75;94277.41;5009321;28;20054;-66
2022/09/19 10:15:55;;;;;;;2.83;1.10;;;;;;;13.63;48.52;94280.47;5009582;28;21525;-67
2022/09/19 10:18:27;;;;;;;4.40;1.10;;;;;;;13.18;48.40;94277.00;5010409;28;20107;-66
2022/09/19 10:20:54;;;;;;;4.28;1.40;;;;;;;13.40;47.90;94284.88;5010733;28;20363;-68
2022/09/19 10:23:24;;;;;;;5.03;1.30;;;;;;;12.58;52.28;94273.38;5010143;28;20049;-66
2022/09/19 10:26:03;;;;;;;4.93;1.60;;;;;;;13.72;48.97;94277.88;5010424;28;20432;-66
2022/09/19 10:28:40;;;;;;;5.97;1.58;;;;;;;14.28;49.19;94283.31;4990146;28;20046;-67
2022/09/19 10:31:23;;;;;;;4.87;1.30;;;;;;;15.50;46.32;94287.75;5003052;28;20045;-64
2022/09/19 10:33:50;;;;;;;5.38;1.30;;;;;;;13.33;50.98;94285.00;5009453;28;20037;-68
2022/09/19 10:36:25;;;;;;;5.00;1.50;;;;;;;13.58;51.21;94284.47;5009973;28;20099;-68
2022/09/19 10:38:54;;;;;;;4.88;1.13;;;;;;;13.15;51.93;94280.56;5010301;28;20050;-67
2022/09/19 10:41:25;;;;;;;7.20;1.63;;;;;;;12.00;54.33;94279.00;5008627;28;20058;-68
2022/09/19 10:43:57;;;;;;;6.20;1.30;;;;;;;11.86;54.73;94281.94;5010273;28;20042;-67
2022/09/19 10:46:36;;;;;;;4.22;1.20;;;;;;;13.10;52.47;94272.03;5009665;28;20487;-68
2022/09/19 10:49:13;;;;;;;4.65;1.20;;;;;;;13.84;49.71;94277.22;5008629;28;20045;-68
2022/09/19 10:51:46;;;;;;;6.13;1.00;;;;;;;13.67;49.59;94281.94;5008845;28;20595;-68
2022/09/19 10:54:30;;;;;;;5.90;1.30;;;;;;;11.40;58.33;94284.13;5007902;28;20061;-67
2022/09/19 10:57:01;;;;;;;5.27;1.20;;;;;;;11.52;58.47;94283.56;5010467;28;20040;-68
2022/09/19 10:59:38;;;;;;;5.15;1.17;;;;;;;11.22;58.60;94275.31;5009076;28;20499;-69
2022/09/19 11:02:08;;;;;;;7.35;1.20;;;;;;;12.02;55.68;94264.84;5010110;28;20091;-67
2022/09/19 11:04:37;;;;;;;3.33;0.98;;;;;;;13.41;49.63;94269.09;5008885;28;21583;-67
2022/09/19 11:07:16;;;;;;;3.80;0.80;;;;;;;14.48;46.33;94272.19;5009861;28;20042;-67
2022/09/19 11:09:45;;;;;;;4.03;0.90;;;;;;;15.47;44.12;94277.53;5008681;28;20049;-68
2022/09/19 11:12:15;;;;;;;3.42;0.98;;;;;;;15.51;43.56;94273.47;5009314;28;20410;-68
2022/09/19 11:14:47;;;;;;;2.65;0.90;;;;;;;15.12;43.49;94275.31;5008176;28;20442;-66
2022/09/19 11:17:31;;;;;;;3.58;0.85;;;;;;;14.56;45.60;94281.88;5009223;28;20411;-67
2022/09/19 11:20:01;;;;;;;5.10;1.10;;;;;;;14.19;45.88;94283.16;5009330;28;20287;-66
2022/09/19 11:22:50;;;;;;;4.37;1.00;;;;;;;13.97;46.51;94285.63;5007710;28;20046;-66
2022/09/19 11:25:39;;;;;;;4.47;0.88;;;;;;;14.23;46.90;94286.63;5009285;28;20510;-66
2022/09/19 11:28:34;;;;;;;4.38;0.77;;;;;;;14.36;46.32;94287.47;5009712;28;20046;-66
2022/09/19 11:31:15;;;;;;;3.20;1.00;;;;;;;14.88;45.62;94291.34;5008828;28;20692;-66
2022/09/19 11:34:11;;;;;;;5.13;0.80;;;;;;;13.97;47.74;94289.16;5008928;28;20173;-66
2022/09/19 11:37:06;;;;;;;3.30;0.70;;;;;;;12.95;50.16;94291.56;5008634;28;20737;-66
2022/09/19 11:39:51;;;;;;;2.38;0.52;;;;;;;12.99;49.57;94283.25;5007206;28;20042;-66
2022/09/19 11:42:41;;;;;;;3.35;0.70;;;;;;;12.38;50.54;94293.34;5007561;28;20042;-67
2022/09/19 11:45:12;;;;;;;4.38;0.80;;;;;;;14.04;47.86;94288.22;5008820;28;20042;-67
2022/09/19 11:48:02;;;;;;;3.60;0.75;;;;;;;13.85;46.84;94289.81;5008762;28;20046;-67
2022/09/19 11:50:59;;;;;;;3.67;0.73;;;;;;;12.65;49.75;94292.50;4978124;28;20050;-67
2022/09/19 11:53:47;;;;;;;3.53;0.70;;;;;;;13.17;48.14;94283.69;4982749;28;20079;-66
2022/09/19 11:56:36;;;;;;;3.15;0.68;;;;;;;13.54;47.92;94283.78;5009440;28;20046;-67
2022/09/19 11:59:27;;;;;;;3.28;0.90;;;;;;;14.26;46.62;94280.22;5009308;28;20465;-68
2022/09/19 12:02:13;;;;;;;2.30;0.60;;;;;;;14.89;44.78;94287.41;5008562;28;20120;-66
2022/09/19 12:04:49;;;;;;;3.50;0.77;;;;;;;14.62;45.35;94273.88;5011126;28;20426;-67
2022/09/19 12:07:54;;;;;;;3.35;0.90;;;;;;;13.47;49.24;94278.44;5012678;28;20050;-68
2022/09/19 12:10:25;;;;;;;4.50;1.10;;;;;;;12.59;51.75;94283.94;5012827;28;20068;-67
2022/09/19 12:13:03;;;;;;;3.65;0.82;;;;;;;13.41;48.89;94280.91;5012733;28;20049;-67
2022/09/19 12:15:35;;;;;;;3.72;1.63;;;;;;;14.10;46.60;94271.94;5012710;28;20049;-67
2022/09/19 12:18:18;;;;;;;3.10;0.73;;;;;;;14.34;46.63;94275.31;5012911;28;20045;-66
2022/09/19 12:20:53;;;;;;;3.10;0.90;;;;;;;14.89;46.03;94267.25;5011796;28;20687;-67